Time;durP1;ratioP1;P1;durP2;ratioP2;P2;SDS_P1;SDS_P2;PMS_P1;PMS_P2;Temp;Humidity;BMP_temperature;BMP_pressure;BME280_temperature;BME280_humidity;BME280_pressure;Samples;Min_cycle;Max_cycle;Signal;HPM_P1;HPM_P2
2022/09/15 00:00:36;;;;;;;3.17;1.65;;;;;;;18.28;84.95;100121.31;5013773;28;20105;-87
2022/09/15 00:03:02;;;;;;;3.13;1.20;;;;;;;17.96;85.50;100129.00;5013667;28;20407;-87
2022/09/15 00:05:27;;;;;;;2.33;0.88;;;;;;;18.30;84.60;100125.47;5013501;28;20022;-87
2022/09/15 00:07:52;;;;;;;6.95;1.58;;;;;;;18.47;84.14;100118.41;5013296;28;20441;-87
2022/09/15 00:10:18;;;;;;;4.25;1.38;;;;;;;18.38;84.54;100122.03;5013459;28;20034;-87
2022/09/15 00:12:43;;;;;;;7.13;1.42;;;;;;;17.93;86.33;100128.47;5006351;28;20105;-87
2022/09/15 00:15:12;;;;;;;3.25;1.48;;;;;;;18.13;85.30;100119.28;4993556;28;20037;-87
2022/09/15 00:17:37;;;;;;;2.40;1.02;;;;;;;18.41;84.71;100124.38;4993325;28;20499;-87
2022/09/15 00:20:05;;;;;;;2.58;1.10;;;;;;;18.23;85.40;100125.31;4993228;28;20030;-87
2022/09/15 00:22:30;;;;;;;2.83;0.90;;;;;;;18.34;85.37;100128.66;4993439;28;20038;-87
2022/09/15 00:24:55;;;;;;;5.93;0.80;;;;;;;18.07;85.82;100127.06;4993683;28;20030;-87
2022/09/15 00:27:21;;;;;;;1.88;1.13;;;;;;;18.37;84.86;100120.38;4998108;28;20026;-87
2022/09/15 00:29:46;;;;;;;3.38;1.17;;;;;;;18.31;84.91;100111.22;5013217;28;20284;-87
2022/09/15 00:32:11;;;;;;;4.70;1.20;;;;;;;18.38;84.18;100119.38;5013245;28;20033;-87
2022/09/15 00:34:37;;;;;;;1.92;0.90;;;;;;;18.44;83.78;100132.00;5012923;28;20025;-88
2022/09/15 00:37:02;;;;;;;6.68;1.63;;;;;;;17.98;84.77;100128.84;5012828;28;20048;-87
2022/09/15 00:39:27;;;;;;;4.43;1.23;;;;;;;18.02;85.38;100133.69;5012721;28;20121;-88
2022/09/15 00:41:53;;;;;;;4.15;1.00;;;;;;;18.42;84.61;100136.66;5008639;28;20033;-88
2022/09/15 00:44:18;;;;;;;2.70;0.90;;;;;;;18.23;85.62;100140.44;4991989;28;20219;-88
2022/09/15 00:46:49;;;;;;;5.45;1.23;;;;;;;18.21;84.69;100137.09;4993191;28;20153;-88
2022/09/15 00:49:43;;;;;;;5.57;1.83;;;;;;;18.13;85.13;100139.72;4992890;28;20026;-88
2022/09/15 00:52:22;;;;;;;5.72;1.38;;;;;;;18.30;84.02;100144.09;4991227;28;20038;-88
2022/09/15 00:55:20;;;;;;;1.67;0.70;;;;;;;18.40;84.25;100139.50;4993262;28;20072;-88
2022/09/15 00:57:53;;;;;;;4.20;1.58;;;;;;;18.26;85.23;100139.25;5004532;28;20054;-88
2022/09/15 01:00:22;;;;;;;3.15;1.10;;;;;;;18.43;84.44;100133.00;5012445;28;20060;-88
2022/09/15 01:02:49;;;;;;;2.28;0.82;;;;;;;18.05;85.33;100121.94;5012615;28;20030;-88
2022/09/15 01:05:17;;;;;;;1.90;0.75;;;;;;;18.49;84.07;100129.69;5012529;28;20026;-88
2022/09/15 01:07:55;;;;;;;2.38;1.00;;;;;;;18.39;83.88;100124.53;5012335;28;20026;-88
2022/09/15 01:10:27;;;;;;;5.18;1.13;;;;;;;18.27;84.58;100125.00;5012255;28;20108;-88
2022/09/15 01:12:56;;;;;;;4.15;1.05;;;;;;;18.36;84.08;100124.00;4995990;28;20072;-88
2022/09/15 01:15:28;;;;;;;2.90;1.15;;;;;;;18.14;85.19;100125.44;5000647;28;20034;-88
2022/09/15 01:18:20;;;;;;;4.50;1.65;;;;;;;18.16;84.44;100118.13;5012360;28;20025;-88
2022/09/15 01:21:23;;;;;;;5.22;1.70;;;;;;;18.25;85.22;100135.78;5011229;28;20088;-88
2022/09/15 01:24:13;;;;;;;3.95;1.00;;;;;;;17.86;86.49;100132.78;5012360;28;20037;-87
2022/09/15 01:27:01;;;;;;;3.03;1.00;;;;;;;17.88;87.17;100141.44;5011117;28;20038;-88
2022/09/15 01:29:53;;;;;;;2.97;1.20;;;;;;;17.98;86.78;100136.81;5010034;28;20084;-87
2022/09/15 01:35:32;;;;;;;3.03;1.30;;;;;;;17.65;88.12;100141.91;5016112;28;20484;-87
2022/09/15 01:38:27;;;;;;;4.80;1.40;;;;;;;17.98;88.23;100147.44;5018606;28;20028;-87
2022/09/15 01:41:16;;;;;;;4.30;1.20;;;;;;;17.89;87.11;100140.41;5018537;28;20105;-88
2022/09/15 01:43:48;;;;;;;5.50;1.20;;;;;;;17.71;88.24;100133.31;4998646;28;20054;-88
2022/09/15 01:46:14;;;;;;;;;;;;;;;17.55;89.41;100139.38;4999470;28;20476;-88
2022/09/15 01:48:41;;;;;;;7.00;1.27;;;;;;;17.84;88.81;100141.72;4998987;28;19914;-88
2022/09/15 01:51:07;;;;;;;4.60;1.42;;;;;;;17.49;89.56;100136.50;4999177;28;20034;-87
2022/09/15 01:53:33;;;;;;;5.13;1.02;;;;;;;17.61;89.65;100125.50;4998894;28;20101;-87
2022/09/15 01:56:01;;;;;;;2.38;1.13;;;;;;;17.68;89.30;100140.78;4998237;28;20027;-87
2022/09/15 01:58:26;;;;;;;5.78;1.42;;;;;;;17.73;89.31;100138.47;5018874;28;20057;-88
2022/09/15 02:00:57;;;;;;;3.35;1.17;;;;;;;17.64;90.29;100127.81;5019253;28;20022;-87
2022/09/15 02:03:32;;;;;;;2.55;0.95;;;;;;;17.56;91.21;100126.94;5018773;28;20036;-87
2022/09/15 02:06:06;;;;;;;1.92;0.95;;;;;;;17.69;89.83;100114.06;5018884;28;20121;-87
2022/09/15 02:08:44;;;;;;;1.75;0.85;;;;;;;17.93;89.11;100131.13;5018949;28;20029;-87
2022/09/15 02:11:20;;;;;;;3.20;1.17;;;;;;;17.65;90.66;100128.63;5013514;28;20097;-88
2022/09/15 02:14:01;;;;;;;3.08;1.05;;;;;;;17.73;90.33;100123.41;4999159;28;20026;-87
2022/09/15 02:16:32;;;;;;;5.47;1.30;;;;;;;17.78;89.06;100122.91;4999039;28;20031;-88
2022/09/15 02:19:36;;;;;;;3.78;0.82;;;;;;;17.40;91.19;100125.84;4998852;28;20065;-87
2022/09/15 02:22:14;;;;;;;4.35;1.00;;;;;;;17.86;89.54;100132.78;4998906;28;20030;-87
2022/09/15 02:24:55;;;;;;;4.22;1.10;;;;;;;17.75;89.15;100132.03;4998435;28;20366;-88
2022/09/15 02:27:24;;;;;;;2.28;1.00;;;;;;;17.84;89.06;100138.25;5013981;28;20031;-87
2022/09/15 02:29:53;;;;;;;1.67;1.05;;;;;;;17.89;90.09;100135.09;5018283;28;20125;-87
2022/09/15 02:32:22;;;;;;;3.60;2.03;;;;;;;17.87;89.41;100134.44;5018123;28;20026;-87
2022/09/15 02:34:50;;;;;;;2.90;0.75;;;;;;;17.93;89.01;100144.41;5018204;28;20037;-88
2022/09/15 02:37:19;;;;;;;2.67;0.77;;;;;;;17.77;89.57;100146.00;5018302;28;20100;-88
2022/09/15 02:39:53;;;;;;;4.35;0.95;;;;;;;18.09;87.32;100143.66;5017901;28;20036;-87
2022/09/15 02:42:27;;;;;;;2.60;0.95;;;;;;;17.78;89.33;100147.66;4999149;28;20034;-88
2022/09/15 02:44:54;;;;;;;6.15;1.75;;;;;;;17.52;90.45;100147.66;4998491;28;20014;-87
2022/09/15 02:47:19;;;;;;;6.82;1.15;;;;;;;17.82;88.97;100150.81;4994455;28;20464;-87
2022/09/15 02:49:44;;;;;;;2.55;0.70;;;;;;;17.71;89.78;100151.06;4995341;28;20019;-88
2022/09/15 02:52:10;;;;;;;3.63;1.05;;;;;;;17.64;89.63;100143.75;4995377;28;20030;-88
2022/09/15 02:54:35;;;;;;;3.92;0.70;;;;;;;18.07;88.26;100143.00;4994986;28;20035;-87
2022/09/15 02:57:00;;;;;;;5.78;1.00;;;;;;;17.75;89.10;100145.31;5012286;28;20065;-88
2022/09/15 03:00:11;;;;;;;3.28;0.95;;;;;;;18.10;87.48;100151.47;5014651;28;20519;-87
2022/09/15 03:02:12;;;;;;;4.22;1.10;;;;;;;18.04;88.09;100157.44;5012250;28;20141;-88
2022/09/15 03:04:37;;;;;;;3.80;0.85;;;;;;;18.13;87.38;100155.66;4994973;28;20460;-88
2022/09/15 03:07:03;;;;;;;1.83;0.77;;;;;;;18.01;88.26;100147.16;4994813;28;20054;-88
2022/09/15 03:09:28;;;;;;;5.53;1.08;;;;;;;17.90;88.54;100150.06;4995284;28;20635;-88
2022/09/15 03:11:54;;;;;;;1.50;0.70;;;;;;;17.85;88.70;100147.88;4994900;28;20032;-88
2022/09/15 03:14:19;;;;;;;3.50;1.10;;;;;;;17.86;88.38;100146.88;4995083;28;20050;-88
2022/09/15 03:16:44;;;;;;;7.95;1.23;;;;;;;17.83;88.94;100150.69;4994500;28;20033;-88
2022/09/15 03:19:11;;;;;;;2.22;1.20;;;;;;;17.93;88.68;100144.41;5014043;28;20048;-88
2022/09/15 03:21:36;;;;;;;2.85;1.10;;;;;;;18.01;88.41;100157.78;5014250;28;20026;-88
2022/09/15 03:24:02;;;;;;;2.17;0.80;;;;;;;17.77;89.10;100145.13;5014594;28;20045;-88
2022/09/15 03:26:27;;;;;;;3.55;0.77;;;;;;;17.73;89.53;100149.09;5014362;28;20384;-88
2022/09/15 03:28:53;;;;;;;4.70;0.90;;;;;;;18.10;88.07;100146.16;5014332;28;20061;-88
2022/09/15 03:31:18;;;;;;;9.95;1.88;;;;;;;17.94;88.71;100146.09;5014264;28;20026;-88
2022/09/15 03:33:44;;;;;;;2.15;0.70;;;;;;;17.95;88.56;100147.75;4995366;28;20092;-88
2022/09/15 03:36:09;;;;;;;4.82;1.45;;;;;;;17.27;91.51;100143.97;4994358;28;20432;-88
2022/09/15 03:38:35;;;;;;;5.88;0.80;;;;;;;17.41;91.62;100151.38;4994484;28;20192;-88
2022/09/15 03:41:06;;;;;;;4.65;0.88;;;;;;;17.65;90.43;100152.53;4994735;28;20030;-88
2022/09/15 03:43:33;;;;;;;5.78;0.88;;;;;;;17.55;90.72;100152.63;4994649;28;20092;-88
2022/09/15 03:45:59;;;;;;;6.50;1.35;;;;;;;17.38;91.42;100161.50;4994548;28;20166;-88
2022/09/15 03:48:26;;;;;;;10.23;1.33;;;;;;;17.13;92.77;100155.16;5011153;28;20030;-88
2022/09/15 03:50:51;;;;;;;6.00;0.90;;;;;;;17.39;91.99;100163.16;5013649;28;20030;-88
2022/09/15 03:53:17;;;;;;;6.10;1.00;;;;;;;17.41;91.74;100169.94;5013927;28;20033;-88
2022/09/15 03:55:44;;;;;;;1.40;0.70;;;;;;;17.66;91.07;100164.84;5014046;28;20428;-88
2022/09/15 03:58:10;;;;;;;4.28;1.00;;;;;;;17.47;91.67;100167.69;5013343;28;20121;-88
2022/09/15 04:00:36;;;;;;;5.45;1.00;;;;;;;17.61;91.36;100169.75;5013719;28;20021;-88
2022/09/15 04:03:01;;;;;;;3.90;1.02;;;;;;;17.59;91.33;100171.75;4995247;28;20126;-88
2022/09/15 04:05:27;;;;;;;4.88;0.88;;;;;;;17.67;91.13;100171.78;4993858;28;20030;-88
2022/09/15 04:07:52;;;;;;;2.63;0.80;;;;;;;17.73;91.39;100162.38;4994178;28;20123;-87
2022/09/15 04:10:17;;;;;;;1.92;0.82;;;;;;;17.89;90.37;100164.31;4993985;28;20061;-88
2022/09/15 04:12:43;;;;;;;4.78;1.05;;;;;;;17.70;91.91;100171.50;4993911;28;20026;-88
2022/09/15 04:15:09;;;;;;;2.72;1.00;;;;;;;17.87;91.16;100176.94;4993757;28;20130;-87
2022/09/15 04:17:34;;;;;;;3.70;0.98;;;;;;;17.76;91.61;100181.50;5007791;28;20025;-88
2022/09/15 04:20:00;;;;;;;6.85;1.70;;;;;;;17.69;91.55;100177.78;5013194;28;20032;-88
2022/09/15 04:22:26;;;;;;;4.22;1.10;;;;;;;17.74;92.13;100183.47;5013201;28;20472;-88
2022/09/15 04:24:52;;;;;;;3.38;1.10;;;;;;;17.51;92.82;100182.31;5012960;28;20038;-88
2022/09/15 04:27:17;;;;;;;6.78;1.10;;;;;;;17.64;92.59;100188.06;4996895;28;20037;-89
2022/09/15 04:29:43;;;;;;;5.70;0.90;;;;;;;17.54;92.79;100188.16;4993609;28;20023;-88
2022/09/15 04:32:09;;;;;;;4.00;1.02;;;;;;;17.37;92.93;100187.19;4993668;28;20489;-88
2022/09/15 04:34:34;;;;;;;3.20;0.88;;;;;;;17.65;92.56;100189.69;4993740;28;20030;-89
2022/09/15 04:37:00;;;;;;;4.28;1.13;;;;;;;17.56;92.58;100188.81;4993537;28;20026;-88
2022/09/15 04:39:25;;;;;;;8.80;1.15;;;;;;;17.68;91.36;100191.22;4993326;28;20038;-88
2022/09/15 04:41:51;;;;;;;4.25;1.02;;;;;;;17.89;91.02;100185.56;5010202;28;20022;-88
2022/09/15 04:44:16;;;;;;;4.03;1.20;;;;;;;17.82;91.08;100186.16;5013234;28;20050;-88
2022/09/15 04:46:41;;;;;;;5.00;1.02;;;;;;;17.85;90.73;100190.34;5012929;28;20045;-89
2022/09/15 04:49:07;;;;;;;2.70;1.02;;;;;;;17.50;91.75;100186.78;5011754;28;20454;-88
2022/09/15 04:51:32;;;;;;;4.97;1.15;;;;;;;17.66;91.77;100191.38;5013119;28;20463;-89
2022/09/15 04:53:57;;;;;;;2.58;0.80;;;;;;;17.61;90.85;100194.53;5009692;28;20030;-88
2022/09/15 04:56:25;;;;;;;2.75;1.50;;;;;;;17.62;91.24;100196.16;4992239;28;20026;-89
2022/09/15 04:58:56;;;;;;;3.72;1.17;;;;;;;17.44;91.70;100193.53;4992834;28;20384;-88
2022/09/15 05:01:27;;;;;;;6.55;1.10;;;;;;;17.42;91.74;100195.53;4993499;28;20037;-88
2022/09/15 05:03:53;;;;;;;5.57;1.27;;;;;;;17.61;90.42;100196.31;4993258;28;20476;-88
2022/09/15 05:06:22;;;;;;;4.15;1.10;;;;;;;17.82;90.02;100188.00;4993167;28;20057;-89
2022/09/15 05:08:49;;;;;;;6.07;1.40;;;;;;;18.01;89.85;100190.47;4992449;28;20023;-88
2022/09/15 05:11:15;;;;;;;2.55;0.77;;;;;;;18.11;88.21;100206.31;5008815;28;20029;-88
2022/09/15 05:13:41;;;;;;;3.70;1.05;;;;;;;18.03;89.01;100209.75;5012688;28;20040;-88
2022/09/15 05:16:10;;;;;;;4.78;0.70;;;;;;;18.10;88.92;100203.78;5012515;28;20101;-89
2022/09/15 05:18:36;;;;;;;4.25;1.10;;;;;;;18.12;89.25;100207.94;5012415;28;20423;-88
2022/09/15 05:21:03;;;;;;;6.63;1.42;;;;;;;17.94;89.05;100202.72;5012356;28;20048;-88
2022/09/15 05:23:29;;;;;;;8.38;1.17;;;;;;;17.88;89.54;100210.47;5012449;28;20527;-88
2022/09/15 05:25:59;;;;;;;6.55;1.65;;;;;;;17.67;89.31;100219.59;4995330;28;20113;-88
2022/09/15 05:28:26;;;;;;;6.50;1.17;;;;;;;17.65;89.54;100216.25;5012245;28;20030;-88
2022/09/15 05:30:52;;;;;;;4.07;1.02;;;;;;;18.10;87.43;100215.25;5010943;28;20634;-88
2022/09/15 05:33:22;;;;;;;6.28;1.45;;;;;;;18.13;85.79;100214.94;5011189;28;20508;-88
2022/09/15 05:35:56;;;;;;;3.72;1.48;;;;;;;18.24;86.18;100222.63;5012183;28;20034;-88
2022/09/15 05:38:22;;;;;;;2.13;0.93;;;;;;;17.98;85.67;100221.81;5012001;28;20034;-88
2022/09/15 05:40:48;;;;;;;5.68;1.17;;;;;;;17.81;85.65;100226.16;5012458;28;20033;-88
2022/09/15 05:43:14;;;;;;;6.07;1.13;;;;;;;18.04;85.04;100221.19;5012694;28;20349;-88
2022/09/15 05:45:41;;;;;;;7.53;1.30;;;;;;;18.02;84.61;100228.50;5012044;28;20022;-88
2022/09/15 05:48:10;;;;;;;4.10;1.10;;;;;;;18.27;83.15;100231.31;4997774;28;20113;-89
2022/09/15 05:50:36;;;;;;;6.22;1.25;;;;;;;18.27;82.44;100237.44;4992538;28;20089;-88
2022/09/15 05:53:02;;;;;;;4.03;1.13;;;;;;;18.04;83.16;100237.13;4992428;28;20153;-89
2022/09/15 05:55:28;;;;;;;8.40;1.30;;;;;;;18.10;83.41;100225.88;4992584;28;20030;-88
2022/09/15 05:57:53;;;;;;;7.32;1.40;;;;;;;18.16;83.77;100230.56;4992334;28;20496;-88
2022/09/15 06:00:19;;;;;;;5.93;1.63;;;;;;;18.15;83.68;100234.22;4992682;28;20034;-89
2022/09/15 06:02:44;;;;;;;5.32;1.00;;;;;;;17.97;83.53;100236.09;5004125;28;20079;-89
2022/09/15 06:05:10;;;;;;;3.65;1.00;;;;;;;17.90;83.68;100235.88;5012294;28;20105;-89
2022/09/15 06:07:36;;;;;;;4.38;1.23;;;;;;;18.10;83.49;100241.00;5011847;28;20022;-89
2022/09/15 06:10:02;;;;;;;9.40;1.92;;;;;;;18.02;83.03;100249.75;5011933;28;20022;-89
2022/09/15 06:12:28;;;;;;;5.35;1.23;;;;;;;18.19;82.71;100240.88;5011756;28;20380;-89
2022/09/15 06:14:53;;;;;;;5.40;1.30;;;;;;;18.20;83.22;100234.56;5011849;28;20022;-89
2022/09/15 06:17:19;;;;;;;3.33;0.90;;;;;;;18.34;82.00;100242.94;5000067;28;20045;-89
2022/09/15 06:19:44;;;;;;;7.50;1.65;;;;;;;18.24;79.88;100241.22;4992434;28;20105;-89
2022/09/15 06:22:11;;;;;;;6.00;1.00;;;;;;;17.90;81.26;100235.88;4995442;28;20105;-88
2022/09/15 06:24:36;;;;;;;12.10;2.05;;;;;;;17.88;80.39;100231.72;4995860;28;20551;-89
2022/09/15 06:27:02;;;;;;;6.55;1.10;;;;;;;18.31;80.07;100237.97;4995683;28;20026;-89
2022/09/15 06:29:27;;;;;;;10.75;1.50;;;;;;;17.89;79.79;100244.88;4995534;28;20089;-89
2022/09/15 06:31:53;;;;;;;11.82;2.00;;;;;;;18.41;78.25;100247.47;5004415;28;20034;-88
2022/09/15 06:34:18;;;;;;;7.47;1.10;;;;;;;18.28;78.62;100251.56;5015490;28;20022;-88
2022/09/15 06:36:44;;;;;;;5.18;0.98;;;;;;;18.62;77.79;100256.84;5015383;28;20022;-88
2022/09/15 06:39:09;;;;;;;3.50;1.13;;;;;;;18.81;78.15;100258.47;5014973;28;20033;-88
2022/09/15 06:41:35;;;;;;;5.45;1.00;;;;;;;18.48;77.07;100262.78;5014854;28;20041;-88
2022/09/15 06:44:00;;;;;;;4.28;1.30;;;;;;;18.60;77.05;100270.34;5015363;28;20460;-88
2022/09/15 06:46:27;;;;;;;8.50;1.27;;;;;;;18.56;76.30;100268.13;5006428;28;20022;-90
2022/09/15 06:48:52;;;;;;;8.20;1.15;;;;;;;18.69;75.89;100270.34;5005676;28;20057;-88
2022/09/15 06:51:21;;;;;;;8.20;1.52;;;;;;;18.91;73.66;100277.78;5014239;28;20068;-90
2022/09/15 06:53:47;;;;;;;5.78;1.88;;;;;;;18.81;74.24;100277.91;5014679;28;20030;-88
2022/09/15 06:56:15;;;;;;;6.95;1.58;;;;;;;18.73;75.04;100295.63;5015446;28;20073;-94
2022/09/15 06:58:42;;;;;;;7.68;1.42;;;;;;;19.09;73.52;100284.81;5026679;28;20430;-91
2022/09/15 07:01:11;;;;;;;11.35;1.08;;;;;;;18.57;73.39;100293.75;5026521;28;20026;-93
2022/09/15 07:03:38;;;;;;;7.85;1.73;;;;;;;19.11;74.97;100298.78;5014674;28;20022;-91
2022/09/15 07:06:04;;;;;;;9.00;1.75;;;;;;;19.07;73.81;100308.09;5015192;28;20507;-91
2022/09/15 07:08:29;;;;;;;11.02;1.10;;;;;;;19.18;73.89;100303.31;5014205;28;20030;-87
2022/09/15 07:10:55;;;;;;;8.13;1.50;;;;;;;19.31;73.06;100302.00;5014395;28;20081;-89
2022/09/15 07:13:22;;;;;;;9.98;1.83;;;;;;;19.47;73.00;100311.81;5014457;28;20277;-88
2022/09/15 07:15:52;;;;;;;7.57;1.85;;;;;;;19.44;73.36;100312.19;5006870;28;20097;-89
2022/09/15 07:18:17;;;;;;;9.25;1.88;;;;;;;19.40;72.92;100315.16;4999723;28;20106;-88
2022/09/15 07:20:43;;;;;;;11.70;1.60;;;;;;;19.44;72.94;100315.66;5012496;28;20121;-89
2022/09/15 07:23:08;;;;;;;6.18;1.70;;;;;;;19.56;71.72;100310.84;4999925;28;20037;-89
2022/09/15 07:25:33;;;;;;;13.88;2.22;;;;;;;19.34;71.13;100312.31;5013311;28;20516;-88
2022/09/15 07:27:59;;;;;;;5.18;1.33;;;;;;;19.54;71.79;100312.84;5009381;28;20028;-90
2022/09/15 07:30:24;;;;;;;5.78;1.33;;;;;;;19.96;72.05;100309.22;5009227;28;20080;-89
2022/09/15 07:32:50;;;;;;;6.78;1.27;;;;;;;19.90;71.82;100320.53;5007395;28;20030;-88
2022/09/15 07:35:15;;;;;;;6.20;1.33;;;;;;;19.90;69.40;100326.69;5003109;28;20030;-88
2022/09/15 07:37:40;;;;;;;5.03;1.10;;;;;;;19.89;70.12;100332.22;5006313;28;20034;-88
2022/09/15 07:40:06;;;;;;;6.85;1.70;;;;;;;19.97;69.82;100326.88;5008435;28;20030;-89
2022/09/15 07:42:31;;;;;;;8.88;2.17;;;;;;;20.15;69.56;100319.53;5008268;28;20485;-88
2022/09/15 07:44:57;;;;;;;9.70;1.80;;;;;;;20.71;69.08;100324.09;5003610;28;20029;-87
2022/09/15 07:47:22;;;;;;;9.80;1.58;;;;;;;20.85;66.68;100326.03;5014067;28;20057;-88
2022/09/15 07:49:49;;;;;;;7.38;1.67;;;;;;;20.88;64.51;100325.69;5012431;28;20034;-89
2022/09/15 07:52:14;;;;;;;6.50;1.77;;;;;;;21.26;62.96;100333.84;5011758;28;20061;-89
2022/09/15 07:54:40;;;;;;;6.65;1.50;;;;;;;21.88;60.92;100324.94;5013460;28;20395;-88
2022/09/15 07:57:05;;;;;;;7.43;1.35;;;;;;;22.85;58.31;100326.78;4994602;28;20030;-88
2022/09/15 07:59:30;;;;;;;10.50;2.28;;;;;;;22.45;56.82;100328.91;4994256;28;20033;-88
2022/09/15 08:01:56;;;;;;;8.02;1.58;;;;;;;22.61;56.33;100327.06;5012766;28;20026;-89
2022/09/15 08:04:21;;;;;;;6.35;1.20;;;;;;;22.55;55.81;100329.50;4997421;28;20030;-89
2022/09/15 08:06:46;;;;;;;9.95;2.15;;;;;;;24.20;54.16;100332.53;5007852;28;20052;-89
2022/09/15 08:09:16;;;;;;;7.00;1.55;;;;;;;24.90;49.16;100330.66;5008254;28;20034;-88
2022/09/15 08:11:41;;;;;;;7.78;1.60;;;;;;;24.00;50.10;100333.19;4998538;28;20026;-89
2022/09/15 08:14:07;;;;;;;7.88;1.88;;;;;;;22.88;51.71;100349.69;5001496;28;20038;-89
2022/09/15 08:16:33;;;;;;;4.65;1.58;;;;;;;22.79;52.91;100357.00;5006468;28;20365;-89
2022/09/15 08:18:59;;;;;;;8.57;2.10;;;;;;;22.71;53.21;100357.06;5011875;28;20040;-88
2022/09/15 08:21:26;;;;;;;9.57;1.70;;;;;;;22.70;54.70;100347.38;5012212;28;20021;-88
2022/09/15 08:23:54;;;;;;;11.32;1.80;;;;;;;22.60;54.32;100352.19;5012024;28;20064;-89
2022/09/15 08:26:20;;;;;;;9.98;1.85;;;;;;;22.90;53.50;100353.81;5011099;28;20026;-88
2022/09/15 08:28:46;;;;;;;8.98;1.85;;;;;;;23.07;52.69;100338.41;4998223;28;20078;-88
2022/09/15 08:31:12;;;;;;;7.00;1.38;;;;;;;23.34;51.73;100357.47;4997815;28;20034;-89
2022/09/15 08:33:38;;;;;;;6.53;1.48;;;;;;;23.42;51.14;100362.72;5010850;28;20098;-89
2022/09/15 08:36:10;;;;;;;6.35;1.50;;;;;;;24.02;49.71;100357.97;5008960;28;20041;-89
2022/09/15 08:38:37;;;;;;;;;;;;;;;23.87;50.67;100363.38;4997201;28;20022;-89
2022/09/15 08:41:06;;;;;;;14.30;2.20;;;;;;;23.55;50.76;100367.38;5002244;28;20348;-89
2022/09/15 08:43:40;;;;;;;9.10;2.05;;;;;;;23.19;51.84;100356.69;4998264;28;20508;-89
2022/09/15 08:46:12;;;;;;;10.48;1.55;;;;;;;22.34;52.67;100366.81;4999850;28;20026;-88
2022/09/15 08:48:47;;;;;;;8.57;1.55;;;;;;;25.79;46.63;100359.28;5009882;28;20500;-88
2022/09/15 08:51:21;;;;;;;6.53;1.50;;;;;;;25.62;45.59;100353.44;5004429;28;20041;-88
2022/09/15 08:53:54;;;;;;;10.63;1.52;;;;;;;27.81;40.18;100356.63;5007645;28;20141;-89
2022/09/15 08:56:21;;;;;;;6.65;1.45;;;;;;;27.70;40.22;100360.84;5008451;28;20029;-89
2022/09/15 08:58:46;;;;;;;7.97;1.40;;;;;;;25.57;42.27;100369.34;5011712;28;20029;-89
2022/09/15 09:01:43;;;;;;;8.13;1.77;;;;;;;25.03;45.12;100375.56;5011040;28;20034;-89
2022/09/15 09:04:37;;;;;;;8.43;1.77;;;;;;;24.29;44.48;100385.00;5011778;28;20053;-89
2022/09/15 09:07:09;;;;;;;6.60;1.00;;;;;;;25.59;42.14;100378.03;5011272;28;20022;-89
2022/09/15 09:09:40;;;;;;;6.07;1.13;;;;;;;26.10;38.48;100371.31;5007363;28;20112;-88
2022/09/15 09:12:16;;;;;;;4.72;0.95;;;;;;;24.79;42.11;100383.09;5009431;28;20030;-89
2022/09/15 09:15:19;;;;;;;6.40;0.85;;;;;;;23.99;41.78;100385.16;5010787;28;20084;-88
2022/09/15 09:17:50;;;;;;;6.32;0.95;;;;;;;25.61;39.87;100384.06;4993629;28;20535;-88
2022/09/15 09:20:28;;;;;;;6.05;1.10;;;;;;;28.53;34.94;100388.66;5010324;28;20123;-89
2022/09/15 09:22:54;;;;;;;2.85;0.60;;;;;;;24.54;39.47;100388.91;5010263;28;20041;-89
2022/09/15 09:25:21;;;;;;;8.70;1.00;;;;;;;25.91;38.07;100381.06;5011622;28;20439;-88
2022/09/15 09:27:47;;;;;;;9.70;1.00;;;;;;;28.18;34.00;100380.25;5006566;28;20037;-88
2022/09/15 09:30:23;;;;;;;4.88;0.93;;;;;;;32.49;31.13;100369.47;5009078;28;20303;-89
2022/09/15 09:33:10;;;;;;;8.25;1.33;;;;;;;27.79;34.11;100390.28;5011474;28;20029;-88
2022/09/15 09:35:48;;;;;;;11.52;1.52;;;;;;;26.60;36.78;100389.72;5010382;28;20025;-88
2022/09/15 09:38:23;;;;;;;4.80;1.00;;;;;;;24.92;39.72;100388.53;5008154;28;20364;-88
2022/09/15 09:40:48;;;;;;;;;;;;;;;24.36;40.36;100401.97;5010443;28;20026;-88
2022/09/15 09:43:14;;;;;;;7.63;1.40;;;;;;;23.76;42.17;100399.56;5003220;28;20391;-88
2022/09/15 09:45:39;;;;;;;3.50;1.17;;;;;;;23.36;43.82;100400.97;5004722;28;20038;-88
2022/09/15 09:48:20;;;;;;;7.43;1.10;;;;;;;22.37;44.69;100401.22;5010199;28;20472;-88
2022/09/15 09:50:46;;;;;;;4.65;1.35;;;;;;;23.31;45.06;100401.53;5010692;28;20407;-88
2022/09/15 09:53:27;;;;;;;5.38;0.80;;;;;;;21.33;46.33;100403.41;5009385;28;20034;-88
2022/09/15 09:56:10;;;;;;;8.50;2.08;;;;;;;21.29;46.34;100392.25;5011458;28;20045;-88
2022/09/15 09:58:36;;;;;;;7.60;1.40;;;;;;;22.37;45.17;100395.88;5001211;28;20026;-88
2022/09/15 10:01:09;;;;;;;4.50;0.68;;;;;;;22.20;46.52;100402.38;5014819;28;20033;-89
2022/09/15 10:03:36;;;;;;;7.05;1.00;;;;;;;21.97;45.89;100400.53;5014396;28;20021;-88
2022/09/15 10:06:18;;;;;;;8.45;1.63;;;;;;;22.36;44.44;100399.56;5011428;28;20579;-88
2022/09/15 10:08:57;;;;;;;;;;;;;;;22.39;44.03;100399.19;5014492;28;20036;-89
2022/09/15 10:11:41;;;;;;;5.38;0.90;;;;;;;22.47;45.94;100399.16;5014844;28;19913;-88
2022/09/15 10:14:17;;;;;;;3.47;0.90;;;;;;;23.06;44.39;100389.47;5008495;28;20076;-89
2022/09/15 10:16:43;;;;;;;3.85;0.93;;;;;;;23.60;44.13;100391.78;5013687;28;20088;-93
2022/09/15 10:19:13;;;;;;;5.28;0.80;;;;;;;22.59;44.48;100391.50;5008930;28;20034;-89
2022/09/15 10:21:39;;;;;;;4.55;1.00;;;;;;;23.15;44.26;100388.38;5004503;28;20387;-90
2022/09/15 10:24:23;;;;;;;6.82;1.00;;;;;;;23.42;43.59;100394.03;5011921;28;20010;-89
2022/09/15 10:26:49;;;;;;;5.03;0.95;;;;;;;23.26;43.87;100379.88;5010878;28;20030;-90
2022/09/15 10:29:16;;;;;;;4.95;1.50;;;;;;;22.64;44.47;100393.63;5014454;28;20065;-89
2022/09/15 10:31:43;;;;;;;6.35;1.27;;;;;;;22.85;44.99;100385.69;5014602;28;20034;-90
2022/09/15 10:34:37;;;;;;;3.20;1.02;;;;;;;23.53;43.76;100394.38;5013024;28;20018;-90
2022/09/15 10:37:29;;;;;;;7.15;0.90;;;;;;;23.36;44.96;100399.16;5010303;28;20259;-90
2022/09/15 10:40:00;;;;;;;3.72;0.70;;;;;;;23.48;43.72;100399.47;5008475;28;20050;-90
2022/09/15 10:43:13;;;;;;;8.10;1.15;;;;;;;22.97;45.05;100397.59;5012880;28;20095;-88
2022/09/15 10:45:46;;;;;;;12.45;1.45;;;;;;;22.03;45.77;100390.97;4991984;28;20034;-88
2022/09/15 10:49:06;;;;;;;4.47;0.95;;;;;;;22.83;45.83;100392.22;4959947;28;20042;-88
2022/09/15 10:52:03;;;;;;;11.45;1.10;;;;;;;23.00;44.43;100407.09;4938903;29;20122;-88
2022/09/15 10:55:03;;;;;;;4.38;1.13;;;;;;;21.97;45.56;100403.22;4918780;29;20073;-89
2022/09/15 10:57:34;;;;;;;4.97;0.82;;;;;;;25.22;41.22;100396.34;4999814;28;20021;-90
2022/09/15 10:59:59;;;;;;;2.50;0.55;;;;;;;29.50;33.88;100390.66;5013962;28;20037;-90
2022/09/15 11:03:08;;;;;;;4.20;0.95;;;;;;;31.50;30.96;100380.88;5012490;28;20099;-91
2022/09/15 11:05:39;;;;;;;8.18;1.63;;;;;;;31.66;31.48;100380.09;5003432;28;20101;-91
2022/09/15 11:08:42;;;;;;;5.68;0.95;;;;;;;30.96;30.99;100379.28;5012796;28;20117;-91
2022/09/15 11:11:10;;;;;;;;;;;;;;;31.39;31.27;100385.25;5014335;28;20052;-90
2022/09/15 11:13:43;;;;;;;;;;;;;;;31.14;29.85;100385.59;5014578;28;19962;-91
2022/09/15 11:16:08;;;;;;;;;;;;;;;30.82;30.71;100388.72;5013942;28;19921;-92
2022/09/15 11:18:41;;;;;;;;;;;;;;;29.41;31.85;100387.47;5009695;28;19917;-91
2022/09/15 11:21:16;;;;;;;;;;;;;;;28.15;33.71;100384.22;5004542;28;19921;-91
2022/09/15 11:23:41;;;;;;;;;;;;;;;27.99;34.96;100391.00;5014611;28;19921;-90
2022/09/15 11:26:11;;;;;;;;;;;;;;;30.47;32.15;100388.75;5011534;28;19913;-92
2022/09/15 11:28:38;;;;;;;;;;;;;;;28.68;32.62;100393.72;5006497;28;19918;-91
2022/09/15 11:31:19;;;;;;;;;;;;;;;29.01;31.85;100381.69;5012694;28;19917;-91
2022/09/15 11:33:51;;;;;;;;;;;;;;;32.65;28.83;100380.59;4995957;28;20443;-91
2022/09/15 11:36:19;;;;;;;;;;;;;;;31.31;29.45;100383.75;5004056;28;19921;-92
2022/09/15 11:38:48;;;;;;;;;;;;;;;30.22;30.75;100395.22;5014067;28;19987;-91
2022/09/15 11:41:26;;;;;;;;;;;;;;;28.44;32.29;100388.09;5014474;28;19967;-91
2022/09/15 11:44:09;;;;;;;;;;;;;;;30.81;30.45;100392.50;5010532;28;19925;-91
2022/09/15 11:46:35;;;;;;;;;;;;;;;30.08;31.08;100401.91;5007552;28;20270;-91